createdAt,value
2023-03-25T00:48:13.614Z,3.13
2023-03-25T00:50:59.168Z,2.95
2023-03-25T00:53:44.593Z,3.05
2023-03-25T00:56:31.473Z,2.75
2023-03-25T00:59:17.055Z,3.03
2023-03-25T01:46:21.703Z,2.72
2023-03-25T01:49:09.904Z,2.17
2023-03-25T01:51:59.886Z,2.55
2023-03-25T01:54:46.890Z,3.00
2023-03-25T01:57:33.518Z,2.20
2023-03-25T02:46:15.733Z,2.40
2023-03-25T02:49:21.592Z,2.13
2023-03-25T02:52:15.503Z,2.30
2023-03-25T02:55:04.960Z,2.28
2023-03-25T02:57:57.287Z,2.15
2023-03-25T03:46:42.110Z,1.88
2023-03-25T03:49:41.434Z,2.45
2023-03-25T03:52:45.156Z,1.80
2023-03-25T03:55:39.322Z,2.00
2023-03-25T03:58:29.930Z,1.90
2023-03-25T04:46:59.252Z,1.80
2023-03-25T04:49:45.325Z,2.10
2023-03-25T04:52:31.025Z,1.70
2023-03-25T04:55:17.902Z,1.77
2023-03-25T04:58:03.848Z,1.90
2023-03-25T05:46:46.889Z,1.20
2023-03-25T05:49:32.787Z,2.00
2023-03-25T05:52:19.567Z,1.77
2023-03-25T05:55:05.712Z,1.80
2023-03-25T05:57:51.767Z,1.70
2023-03-25T06:00:37.481Z,1.63
2023-03-25T06:03:26.160Z,1.60
2023-03-25T06:06:14.068Z,1.40
2023-03-25T06:08:59.402Z,1.23
2023-03-25T06:11:44.797Z,1.35
2023-03-25T06:14:30.012Z,1.53
2023-03-25T06:17:19.014Z,1.55
2023-03-25T06:20:12.693Z,1.50
2023-03-25T06:22:58.250Z,1.30
2023-03-25T06:25:43.626Z,1.75
2023-03-25T06:28:29.156Z,1.53
2023-03-25T06:31:20.693Z,1.30
2023-03-25T06:34:06.466Z,1.08
2023-03-25T06:36:54.176Z,1.30
2023-03-25T06:39:39.805Z,1.23
2023-03-25T06:42:33.905Z,1.27
2023-03-25T06:45:40.047Z,1.30
2023-03-25T06:48:39.335Z,1.20
2023-03-25T06:51:24.886Z,1.40
2023-03-25T06:54:10.483Z,1.20
2023-03-25T06:56:55.876Z,1.13
2023-03-25T06:59:41.107Z,1.00
2023-03-25T07:02:26.289Z,0.90
2023-03-25T07:05:11.876Z,1.02
2023-03-25T07:07:58.276Z,1.20
2023-03-25T07:10:43.690Z,1.10
2023-03-25T07:13:29.064Z,1.00
2023-03-25T07:16:14.481Z,1.25
2023-03-25T07:19:00.157Z,0.90
2023-03-25T07:21:45.626Z,1.20
2023-03-25T07:24:30.932Z,1.03
2023-03-25T07:27:16.462Z,1.10
2023-03-25T07:30:09.797Z,1.10
2023-03-25T07:32:56.004Z,1.17
2023-03-25T07:35:41.250Z,1.10
2023-03-25T07:38:26.594Z,1.00
2023-03-25T07:41:13.332Z,1.05
2023-03-25T07:44:08.618Z,0.90
2023-03-25T07:46:55.509Z,1.20
2023-03-25T07:49:40.950Z,1.02
2023-03-25T07:52:25.921Z,1.10
2023-03-25T07:55:11.947Z,1.00
2023-03-25T07:57:58.629Z,1.00
2023-03-25T08:00:44.605Z,1.30
2023-03-25T08:03:30.090Z,1.10
2023-03-25T08:06:15.681Z,1.23
2023-03-25T08:09:00.960Z,0.93
2023-03-25T08:11:48.407Z,1.02
2023-03-25T08:14:33.944Z,0.88
2023-03-25T08:17:19.500Z,1.10
2023-03-25T08:20:06.081Z,1.30
2023-03-25T08:22:51.616Z,0.90
2023-03-25T08:25:38.199Z,1.30
2023-03-25T08:28:23.810Z,1.00
2023-03-25T08:31:09.470Z,1.10
2023-03-25T08:33:55.264Z,1.30
2023-03-25T08:36:40.292Z,0.98
2023-03-25T08:39:30.605Z,1.27
2023-03-25T08:42:16.981Z,1.00
2023-03-25T08:45:02.124Z,1.17
2023-03-25T08:47:47.376Z,0.87
2023-03-25T08:50:32.764Z,1.27
2023-03-25T08:53:18.110Z,1.08
2023-03-25T08:56:03.679Z,0.80
2023-03-25T08:58:48.891Z,1.00
2023-03-25T09:01:34.148Z,0.77
2023-03-25T09:04:19.661Z,0.90
2023-03-25T09:07:10.383Z,1.10
2023-03-25T09:09:56.991Z,1.00
2023-03-25T09:12:42.564Z,0.90
2023-03-25T09:15:27.940Z,1.00
2023-03-25T09:18:13.649Z,0.90
2023-03-25T09:20:59.971Z,1.02
2023-03-25T09:23:45.366Z,0.80
2023-03-25T09:26:30.730Z,0.80
2023-03-25T09:29:16.424Z,0.87
2023-03-25T09:32:01.712Z,0.90
2023-03-25T09:34:47.358Z,0.75
2023-03-25T09:37:32.648Z,0.73
2023-03-25T09:40:20.749Z,0.90
2023-03-25T09:43:33.056Z,0.90
2023-03-25T09:46:18.661Z,0.90
2023-03-25T09:49:04.560Z,0.90
2023-03-25T09:51:53.028Z,0.77
2023-03-25T09:54:46.827Z,0.60
2023-03-25T09:57:41.796Z,0.90
2023-03-25T10:00:27.417Z,0.80
2023-03-25T10:03:23.648Z,1.00
2023-03-25T10:06:13.435Z,0.85
2023-03-25T10:09:02.141Z,0.90
2023-03-25T10:12:20.280Z,0.93
2023-03-25T10:15:26.823Z,1.23
2023-03-25T10:18:41.802Z,1.00
2023-03-25T10:21:49.771Z,1.00
2023-03-25T10:24:44.790Z,0.90
2023-03-25T10:27:41.569Z,0.90
2023-03-25T10:30:41.728Z,0.90
2023-03-25T10:33:35.991Z,0.90
2023-03-25T10:36:40.354Z,0.88
2023-03-25T10:39:37.262Z,0.90
2023-03-25T10:42:25.464Z,1.00
2023-03-25T10:45:16.368Z,1.05
2023-03-25T10:48:12.882Z,1.33
2023-03-25T10:51:09.579Z,1.23
2023-03-25T10:53:55.107Z,1.00
2023-03-25T10:56:46.497Z,1.40
2023-03-25T10:59:41.632Z,1.33
2023-03-25T11:02:30.146Z,1.27
2023-03-25T11:05:19.181Z,1.00
2023-03-25T11:08:21.984Z,1.30
2023-03-25T11:11:09.498Z,1.00
2023-03-25T11:13:57.404Z,1.13
2023-03-25T11:16:46.316Z,1.00
2023-03-25T11:19:37.505Z,1.10
2023-03-25T11:22:28.523Z,1.05
2023-03-25T11:25:16.902Z,1.10
2023-03-25T11:28:09.950Z,0.85
2023-03-25T11:31:08.059Z,0.95
2023-03-25T11:34:12.111Z,0.70
2023-03-25T11:37:06.362Z,0.50
2023-03-25T11:39:55.818Z,0.80
2023-03-25T11:42:49.801Z,0.63
2023-03-25T11:45:45.304Z,0.60
2023-03-25T11:48:34.082Z,0.70
2023-03-25T11:51:28.254Z,0.70
2023-03-25T11:54:16.793Z,0.70
2023-03-25T11:57:10.769Z,0.80
2023-03-25T12:00:27.607Z,0.65
2023-03-25T12:03:19.734Z,0.60
2023-03-25T12:06:12.205Z,0.60
2023-03-25T12:09:00.562Z,0.40
2023-03-25T12:11:56.891Z,0.55
2023-03-25T12:15:00.057Z,0.50
2023-03-25T12:17:48.680Z,0.40
2023-03-25T12:20:43.180Z,0.52
2023-03-25T12:23:45.747Z,0.50
2023-03-25T12:27:08.140Z,0.50
2023-03-25T12:30:37.263Z,0.40
2023-03-25T12:33:58.403Z,0.50
2023-03-25T12:36:54.240Z,0.40
2023-03-25T12:39:58.456Z,0.50
2023-03-25T12:42:59.692Z,0.30
2023-03-25T12:46:02.039Z,0.30
2023-03-25T12:49:05.422Z,0.40
2023-03-25T12:52:00.212Z,0.50
2023-03-25T12:54:48.665Z,0.37
2023-03-25T12:57:56.031Z,0.40
2023-03-25T13:01:11.036Z,0.60
2023-03-25T13:04:10.044Z,0.40
2023-03-25T13:06:59.319Z,0.40
2023-03-25T13:10:03.783Z,0.70
2023-03-25T13:12:58.884Z,0.50
2023-03-25T13:16:02.266Z,0.40
2023-03-25T13:18:55.415Z,0.30
2023-03-25T13:21:46.360Z,0.50
2023-03-25T13:24:55.919Z,0.60
2023-03-25T13:27:42.638Z,0.40
2023-03-25T13:30:32.672Z,0.50
2023-03-25T13:33:27.953Z,0.40
2023-03-25T13:36:16.027Z,0.50
2023-03-25T13:39:12.831Z,0.60
2023-03-25T13:42:16.302Z,0.40
2023-03-25T13:45:04.382Z,0.50
2023-03-25T13:48:09.394Z,0.50
2023-03-25T13:51:00.792Z,0.57
2023-03-25T13:53:58.956Z,0.30
2023-03-25T13:57:12.065Z,0.40
2023-03-25T14:00:36.550Z,0.45
2023-03-25T14:03:58.932Z,0.40
2023-03-25T14:07:09.842Z,0.40
2023-03-25T14:10:23.850Z,0.50
2023-03-25T14:13:15.731Z,0.40
2023-03-25T14:16:14.975Z,0.50
2023-03-25T14:19:04.998Z,0.30
2023-03-25T14:21:52.164Z,0.50
2023-03-25T14:24:38.060Z,0.40
2023-03-25T14:27:30.044Z,0.50
2023-03-25T14:30:23.788Z,0.40
2023-03-25T14:33:11.337Z,0.50
2023-03-25T14:35:57.176Z,0.50
2023-03-25T14:38:59.610Z,0.50
2023-03-25T14:42:13.405Z,0.40
2023-03-25T14:45:38.434Z,0.55
2023-03-25T14:48:37.765Z,0.55
2023-03-25T14:51:26.593Z,0.38
2023-03-25T14:54:21.126Z,0.43
2023-03-25T14:57:11.490Z,0.50
2023-03-25T15:00:14.001Z,0.60
2023-03-25T15:03:11.925Z,0.60
2023-03-25T15:06:00.253Z,0.70
2023-03-25T15:08:54.943Z,0.57
2023-03-25T15:12:05.416Z,0.40
2023-03-25T15:14:56.895Z,0.35
2023-03-25T15:17:47.026Z,0.60
2023-03-25T15:20:36.028Z,0.50
2023-03-25T15:23:30.261Z,0.60
2023-03-25T15:26:27.318Z,0.60
2023-03-25T15:29:52.934Z,0.70
2023-03-25T15:32:52.925Z,0.88
2023-03-25T15:35:59.734Z,0.70
2023-03-25T15:38:57.435Z,0.50
2023-03-25T15:41:58.204Z,0.70
2023-03-25T15:45:08.143Z,0.50
2023-03-25T15:48:09.799Z,0.55
2023-03-25T15:51:31.915Z,0.70
2023-03-25T15:54:17.165Z,0.80
2023-03-25T15:57:33.030Z,0.50
2023-03-25T16:00:31.726Z,0.90
2023-03-25T16:03:22.413Z,0.60
2023-03-25T16:06:11.820Z,0.77
2023-03-25T16:08:59.649Z,0.50
2023-03-25T16:11:46.266Z,0.60
2023-03-25T16:14:33.591Z,0.60
2023-03-25T16:17:22.089Z,0.65
2023-03-25T16:20:13.371Z,0.80
2023-03-25T16:22:59.892Z,0.70
2023-03-25T16:25:48.831Z,0.80
2023-03-25T16:28:40.918Z,0.80
2023-03-25T16:31:42.833Z,0.57
2023-03-25T16:34:34.137Z,0.73
2023-03-25T16:37:21.608Z,0.53
2023-03-25T16:40:07.594Z,0.70
2023-03-25T16:42:55.582Z,0.90
2023-03-25T16:45:41.442Z,0.95
2023-03-25T16:48:29.351Z,0.90
2023-03-25T16:51:18.198Z,0.80
2023-03-25T16:54:09.339Z,0.80
2023-03-25T16:56:56.016Z,0.93
2023-03-25T16:59:41.946Z,0.90
2023-03-25T17:02:41.828Z,0.90
2023-03-25T17:05:29.706Z,0.83
2023-03-25T17:08:22.028Z,1.00
2023-03-25T17:11:09.048Z,0.98
2023-03-25T17:14:18.078Z,1.13
2023-03-25T17:17:11.599Z,1.02
2023-03-25T17:20:01.987Z,0.80
2023-03-25T17:23:00.772Z,0.90
2023-03-25T17:25:53.554Z,0.95
2023-03-25T17:28:38.863Z,0.80
2023-03-25T17:31:28.197Z,0.98
2023-03-25T17:34:24.273Z,1.17
2023-03-25T17:37:14.002Z,1.13
2023-03-25T17:40:06.857Z,0.80
2023-03-25T17:42:56.416Z,1.00
2023-03-25T17:45:42.076Z,0.80
2023-03-25T17:48:27.957Z,0.70
2023-03-25T17:51:14.310Z,0.88
2023-03-25T17:53:59.794Z,0.90
2023-03-25T17:56:46.812Z,0.80
2023-03-25T17:59:31.972Z,1.08
2023-03-25T18:02:17.718Z,1.20
2023-03-25T18:05:06.331Z,0.90
2023-03-25T18:07:51.878Z,0.70
2023-03-25T18:10:38.721Z,1.00
2023-03-25T18:13:25.064Z,0.80
2023-03-25T18:16:10.687Z,0.70
2023-03-25T18:18:56.139Z,0.93
2023-03-25T18:21:42.162Z,0.80
2023-03-25T18:24:27.766Z,0.52
2023-03-25T18:27:14.217Z,0.70
2023-03-25T18:29:59.791Z,0.80
2023-03-25T18:32:45.225Z,0.95
2023-03-25T18:35:30.468Z,0.70
2023-03-25T18:38:24.479Z,0.73
2023-03-25T18:41:11.637Z,1.27
2023-03-25T18:43:56.960Z,0.70
2023-03-25T18:46:43.173Z,0.70
2023-03-25T18:49:29.016Z,0.60
2023-03-25T18:52:14.633Z,0.80
2023-03-25T18:54:59.837Z,0.80
2023-03-25T18:57:44.979Z,0.70
2023-03-25T19:00:40.421Z,0.70
2023-03-25T19:03:38.470Z,0.80
2023-03-25T19:06:24.186Z,0.70
2023-03-25T19:09:18.192Z,0.82
2023-03-25T19:12:03.538Z,0.70
2023-03-25T19:14:48.803Z,0.60
2023-03-25T19:17:34.296Z,1.10
2023-03-25T19:20:22.941Z,1.10
2023-03-25T19:23:11.290Z,1.13
2023-03-25T19:25:59.686Z,1.17
2023-03-25T19:28:45.237Z,1.38
2023-03-25T19:31:30.758Z,1.40
2023-03-25T19:34:16.728Z,1.00
2023-03-25T19:37:05.559Z,1.08
2023-03-25T19:39:51.786Z,1.73
2023-03-25T19:42:38.873Z,1.50
2023-03-25T19:45:26.103Z,1.55
2023-03-25T19:48:11.806Z,1.33
2023-03-25T19:50:57.754Z,1.60
2023-03-25T19:53:43.392Z,1.30
2023-03-25T19:56:28.801Z,1.33
2023-03-25T19:59:14.083Z,1.10
2023-03-25T20:02:01.402Z,1.25
2023-03-25T20:04:46.805Z,1.10
2023-03-25T20:07:32.341Z,1.30
2023-03-25T20:10:21.051Z,1.40
2023-03-25T20:13:06.930Z,1.20
2023-03-25T20:15:53.022Z,1.20
2023-03-25T20:18:41.197Z,0.98
2023-03-25T20:21:26.637Z,1.07
2023-03-25T20:24:11.972Z,1.17
2023-03-25T20:26:57.704Z,1.48
2023-03-25T20:29:42.838Z,1.52
2023-03-25T20:32:37.791Z,1.35
2023-03-25T20:35:24.842Z,1.50
2023-03-25T20:38:11.669Z,1.50
2023-03-25T20:40:57.085Z,1.38
2023-03-25T20:43:42.768Z,1.58
2023-03-25T20:46:31.146Z,1.25
2023-03-25T20:49:19.151Z,1.20
2023-03-25T20:52:05.330Z,1.45
2023-03-25T20:54:50.859Z,1.63
2023-03-25T20:57:36.409Z,1.33
2023-03-25T21:00:21.696Z,1.30
2023-03-25T21:03:07.860Z,1.00
2023-03-25T21:05:59.636Z,1.30
2023-03-25T21:08:47.103Z,1.33
2023-03-25T21:11:32.760Z,1.40
2023-03-25T21:14:19.071Z,1.23
2023-03-25T21:17:04.284Z,1.10
2023-03-25T21:19:50.522Z,1.08
2023-03-25T21:22:42.502Z,1.20
2023-03-25T21:25:34.183Z,1.40
2023-03-25T21:28:19.701Z,1.23
2023-03-25T21:31:14.010Z,1.30
2023-03-25T21:34:00.048Z,1.13
2023-03-25T21:36:45.522Z,1.30
2023-03-25T21:39:31.128Z,1.20
2023-03-25T21:42:16.409Z,1.05
2023-03-25T21:45:02.599Z,0.97
2023-03-25T21:50:38.414Z,1.30
2023-03-25T21:53:25.781Z,1.10
2023-03-25T21:56:14.888Z,1.27
2023-03-25T21:59:03.347Z,1.00
2023-03-25T22:01:48.868Z,1.10
2023-03-25T22:04:34.824Z,1.10
2023-03-25T22:07:20.282Z,0.95
2023-03-25T22:10:07.321Z,1.20
2023-03-25T22:12:52.895Z,1.50
2023-03-25T22:15:38.025Z,1.00
2023-03-25T22:18:23.520Z,1.00
2023-03-25T22:21:13.004Z,1.00
2023-03-25T22:24:00.245Z,1.10
2023-03-25T22:26:45.213Z,1.03
2023-03-25T22:29:30.771Z,1.30
2023-03-25T22:32:16.186Z,1.08
2023-03-25T22:35:02.583Z,1.00
2023-03-25T22:37:52.509Z,1.17
2023-03-25T22:40:37.646Z,1.17
2023-03-25T22:43:23.054Z,0.90
2023-03-25T22:46:09.604Z,0.98
2023-03-25T22:48:54.969Z,1.27
2023-03-25T22:51:40.714Z,1.05
2023-03-25T22:54:25.852Z,0.77
2023-03-25T22:57:11.321Z,1.40
2023-03-25T22:59:56.418Z,0.90
2023-03-25T23:02:41.949Z,1.10
2023-03-25T23:05:27.570Z,0.80
2023-03-25T23:08:12.514Z,1.20
2023-03-25T23:11:00.438Z,1.15
2023-03-25T23:13:50.074Z,1.00
2023-03-25T23:16:36.047Z,1.00
2023-03-25T23:19:21.510Z,0.95
2023-03-25T23:22:07.262Z,1.03
2023-03-25T23:24:52.309Z,1.05
2023-03-25T23:27:37.506Z,0.90
2023-03-25T23:30:23.856Z,0.90
2023-03-25T23:33:09.390Z,0.90
2023-03-25T23:36:00.529Z,0.80
2023-03-25T23:38:46.971Z,0.70
2023-03-25T23:41:32.518Z,1.10
2023-03-25T23:44:18.347Z,0.90
2023-03-25T23:47:03.920Z,0.93
2023-03-25T23:49:49.511Z,1.30
2023-03-25T23:52:35.141Z,0.90
2023-03-25T23:55:20.731Z,1.00
2023-03-25T23:58:05.824Z,0.80
